Time;durP1;ratioP1;P1;durP2;ratioP2;P2;SDS_P1;SDS_P2;PMS_P1;PMS_P2;Temp;Humidity;BMP_temperature;BMP_pressure;BME280_temperature;BME280_humidity;BME280_pressure;Samples;Min_cycle;Max_cycle;Signal;HPM_P1;HPM_P2
2022/02/26 00:02:50;;;;;;;13.95;5.93;;;;;;;3.78;79.34;100616.63;6275616;28;20064;-72
2022/02/26 00:05:50;;;;;;;13.73;5.70;;;;;;;3.67;80.05;100626.38;6275420;28;20547;-72
2022/02/26 00:08:51;;;;;;;14.65;5.32;;;;;;;3.70;79.52;100621.97;6275360;28;20455;-68
2022/02/26 00:11:52;;;;;;;15.43;6.22;;;;;;;3.77;79.13;100628.69;6275384;28;20045;-68
2022/02/26 00:14:53;;;;;;;9.70;5.00;;;;;;;3.75;78.26;100625.31;6274251;28;20049;-69
2022/02/26 00:17:54;;;;;;;13.35;5.20;;;;;;;3.68;78.11;100621.16;6274114;28;20040;-72
2022/02/26 00:20:55;;;;;;;8.88;4.20;;;;;;;3.77;76.36;100630.44;6273839;28;20049;-72
2022/02/26 00:23:55;;;;;;;9.77;5.03;;;;;;;3.72;76.75;100627.09;6273907;28;20490;-72
2022/02/26 00:26:56;;;;;;;11.60;5.20;;;;;;;3.71;76.74;100620.25;6273508;28;20056;-72
2022/02/26 00:29:57;;;;;;;12.15;5.72;;;;;;;3.77;76.03;100626.09;6274123;28;20529;-72
2022/02/26 00:32:58;;;;;;;5.93;4.03;;;;;;;3.66;77.47;100617.75;6273217;28;20040;-72
2022/02/26 00:35:59;;;;;;;15.18;5.38;;;;;;;3.69;77.21;100601.38;6274715;28;20041;-73
2022/02/26 00:38:59;;;;;;;10.55;5.45;;;;;;;3.59;77.05;100616.22;6273580;28;20456;-73
2022/02/26 00:42:00;;;;;;;12.38;5.20;;;;;;;3.66;76.75;100611.75;6273450;28;20080;-73
2022/02/26 00:45:01;;;;;;;9.20;4.80;;;;;;;3.75;76.11;100621.88;6273233;28;20159;-69
2022/02/26 00:48:02;;;;;;;9.05;4.72;;;;;;;3.71;76.28;100609.94;6273343;28;20472;-69
2022/02/26 00:51:03;;;;;;;10.73;4.90;;;;;;;3.63;75.77;100605.78;6273757;28;20037;-69
2022/02/26 00:54:04;;;;;;;9.73;5.15;;;;;;;3.71;75.63;100610.78;6255924;28;20128;-73
2022/02/26 00:57:04;;;;;;;7.93;4.38;;;;;;;3.74;74.95;100615.00;6291869;28;20114;-69
2022/02/26 01:00:08;;;;;;;10.15;5.10;;;;;;;3.75;74.65;100614.97;6291741;28;20453;-69
2022/02/26 01:03:09;;;;;;;9.57;4.07;;;;;;;3.76;73.92;100620.97;6272276;28;20045;-72
2022/02/26 01:06:11;;;;;;;10.97;4.90;;;;;;;3.67;74.07;100632.38;6255609;28;20479;-73
2022/02/26 01:09:12;;;;;;;6.10;4.35;;;;;;;3.63;73.75;100630.75;6273299;28;20289;-72
2022/02/26 01:12:13;;;;;;;10.15;4.28;;;;;;;3.61;73.52;100632.50;6255415;28;20048;-71
2022/02/26 01:15:14;;;;;;;9.15;4.70;;;;;;;3.66;73.22;100632.41;6271960;28;20238;-72
2022/02/26 01:18:15;;;;;;;9.50;4.63;;;;;;;3.70;73.18;100623.69;6271678;28;20132;-72
2022/02/26 01:21:16;;;;;;;7.65;4.00;;;;;;;3.60;73.20;100629.09;6271678;28;20128;-72
2022/02/26 01:24:17;;;;;;;6.80;3.75;;;;;;;3.67;73.23;100641.84;6238686;28;20426;-69
2022/02/26 01:27:18;;;;;;;10.18;4.05;;;;;;;3.65;73.24;100630.72;6286442;28;20043;-72
2022/02/26 01:30:19;;;;;;;10.82;4.97;;;;;;;3.61;73.52;100640.25;6296155;28;20040;-68
2022/02/26 01:33:20;;;;;;;10.10;4.30;;;;;;;3.54;73.72;100628.34;6297308;28;20479;-68
2022/02/26 01:36:20;;;;;;;9.65;4.43;;;;;;;3.55;72.70;100633.50;6295942;28;20101;-68
2022/02/26 01:39:24;;;;;;;8.40;4.32;;;;;;;3.54;73.97;100630.94;6296192;28;20475;-68
2022/02/26 01:42:25;;;;;;;7.75;3.97;;;;;;;3.46;73.00;100628.56;6296053;28;20048;-69
2022/02/26 01:45:26;;;;;;;8.15;4.40;;;;;;;3.46;74.18;100633.72;6296181;28;20494;-68
2022/02/26 01:48:29;;;;;;;7.90;4.05;;;;;;;3.47;72.98;100635.41;6296910;28;20411;-69
2022/02/26 01:51:30;;;;;;;11.85;4.53;;;;;;;3.48;73.17;100639.69;6295408;28;20491;-69
2022/02/26 01:54:31;;;;;;;11.07;4.22;;;;;;;3.52;72.39;100627.56;6279171;28;20048;-73
2022/02/26 01:57:32;;;;;;;9.20;4.32;;;;;;;3.59;72.68;100634.28;6295687;28;20036;-69
2022/02/26 02:00:33;;;;;;;7.90;4.22;;;;;;;3.51;72.56;100638.78;6295826;28;20155;-73
2022/02/26 02:03:34;;;;;;;9.77;4.18;;;;;;;3.43;72.43;100642.34;6296838;28;20040;-69
2022/02/26 02:06:34;;;;;;;9.75;4.03;;;;;;;3.35;72.52;100643.41;6279060;28;20057;-69
2022/02/26 02:09:35;;;;;;;8.93;4.10;;;;;;;3.32;72.28;100638.34;6295735;28;20376;-72
2022/02/26 02:12:37;;;;;;;9.57;4.60;;;;;;;3.30;73.43;100640.09;6278953;28;20380;-72
2022/02/26 02:15:42;;;;;;;10.02;4.63;;;;;;;3.23;72.79;100645.38;6295322;28;20064;-73
2022/02/26 02:18:43;;;;;;;9.80;4.38;;;;;;;3.09;74.15;100656.84;6296513;28;20514;-69
2022/02/26 02:21:43;;;;;;;8.38;4.13;;;;;;;3.17;72.82;100653.25;6296952;28;20040;-69
2022/02/26 02:24:45;;;;;;;14.13;4.32;;;;;;;3.16;73.26;100654.13;6296531;28;20044;-69
2022/02/26 02:27:46;;;;;;;8.75;4.10;;;;;;;3.00;73.89;100655.31;6296321;28;20040;-68
2022/02/26 02:30:47;;;;;;;9.02;4.60;;;;;;;3.06;74.23;100644.88;6278332;28;20045;-72
2022/02/26 02:33:48;;;;;;;10.10;4.55;;;;;;;2.98;75.01;100650.19;6296276;28;20044;-72
2022/02/26 02:36:49;;;;;;;9.63;5.22;;;;;;;3.16;74.84;100656.69;6278486;28;20047;-72
2022/02/26 02:39:50;;;;;;;9.60;4.38;;;;;;;3.01;74.79;100652.72;6295123;28;20040;-72
2022/02/26 02:42:53;;;;;;;12.90;4.25;;;;;;;3.00;73.58;100651.00;6295163;28;20044;-72
2022/02/26 02:45:54;;;;;;;10.93;4.57;;;;;;;2.94;72.84;100653.69;6294988;28;20491;-69
2022/02/26 02:48:55;;;;;;;9.00;4.10;;;;;;;3.05;72.56;100645.78;6294985;28;20470;-68
2022/02/26 02:51:56;;;;;;;7.70;4.13;;;;;;;3.08;72.21;100650.84;6296139;28;20041;-68
2022/02/26 02:54:57;;;;;;;9.65;3.92;;;;;;;3.09;71.82;100656.84;6294879;28;20071;-69
2022/02/26 02:57:59;;;;;;;10.90;5.05;;;;;;;3.05;71.19;100653.50;6296079;28;20441;-70
2022/02/26 03:01:00;;;;;;;8.47;4.57;;;;;;;3.19;70.43;100655.78;6294842;28;20491;-69
2022/02/26 03:04:00;;;;;;;10.52;4.93;;;;;;;3.06;70.90;100644.88;6298874;28;20286;-69
2022/02/26 03:07:02;;;;;;;9.95;4.43;;;;;;;2.89;71.56;100641.81;6275999;28;20037;-69
2022/02/26 03:10:05;;;;;;;11.98;4.35;;;;;;;3.00;70.83;100640.69;6258351;28;20532;-72
2022/02/26 03:13:07;;;;;;;9.95;5.03;;;;;;;3.02;70.52;100643.22;6275945;28;20496;-73
2022/02/26 03:16:08;;;;;;;8.00;4.35;;;;;;;3.05;71.23;100644.91;6275790;28;20141;-72
2022/02/26 03:19:09;;;;;;;10.68;4.70;;;;;;;3.01;70.69;100647.56;6275729;28;20104;-72
2022/02/26 03:22:10;;;;;;;9.27;4.43;;;;;;;2.95;70.41;100644.25;6258014;28;20045;-72
2022/02/26 03:25:11;;;;;;;13.85;4.65;;;;;;;2.88;70.46;100643.50;6275784;28;20045;-72
2022/02/26 03:28:12;;;;;;;10.98;4.82;;;;;;;2.94;70.16;100647.69;6275548;28;20040;-72
2022/02/26 03:31:13;;;;;;;9.23;4.43;;;;;;;2.94;70.70;100651.13;6274350;28;20075;-72
2022/02/26 03:34:14;;;;;;;11.50;5.05;;;;;;;2.94;70.99;100650.28;6274313;28;20407;-69
2022/02/26 03:37:14;;;;;;;12.63;4.88;;;;;;;3.03;71.45;100657.84;6270852;28;20041;-72
2022/02/26 03:40:16;;;;;;;8.65;4.38;;;;;;;2.70;71.51;100659.31;6300723;28;20059;-72
2022/02/26 03:43:17;;;;;;;12.63;5.15;;;;;;;2.66;72.43;100663.72;6298567;28;20417;-68
2022/02/26 03:46:17;;;;;;;18.80;5.53;;;;;;;2.70;72.16;100664.47;6290339;28;20045;-68
2022/02/26 03:49:18;;;;;;;10.77;5.15;;;;;;;2.67;72.55;100664.56;6282711;28;20037;-68
2022/02/26 03:52:22;;;;;;;9.20;4.75;;;;;;;2.61;71.97;100661.22;6300612;28;20047;-68
2022/02/26 03:55:23;;;;;;;11.02;4.35;;;;;;;2.76;71.53;100666.94;6293076;28;20491;-68
2022/02/26 03:58:24;;;;;;;12.45;5.13;;;;;;;2.79;71.43;100672.91;6257722;28;20119;-68
2022/02/26 04:01:25;;;;;;;14.55;5.78;;;;;;;2.91;71.10;100678.72;6275648;28;20083;-72
2022/02/26 04:04:26;;;;;;;13.18;5.63;;;;;;;2.82;70.67;100690.03;6275632;28;20045;-72
2022/02/26 04:07:27;;;;;;;13.00;5.25;;;;;;;2.85;71.67;100689.13;6274484;28;20102;-72
2022/02/26 04:10:28;;;;;;;15.80;5.70;;;;;;;2.83;72.02;100700.31;6275340;28;20045;-72
2022/02/26 04:13:29;;;;;;;13.23;5.00;;;;;;;2.86;71.89;100701.97;6274105;28;20069;-72
2022/02/26 04:16:30;;;;;;;12.20;5.07;;;;;;;2.63;72.29;100712.72;6273690;28;20052;-72
2022/02/26 04:19:31;;;;;;;13.48;6.13;;;;;;;2.53;73.04;100712.03;6273818;28;20041;-72
2022/02/26 04:22:32;;;;;;;8.93;5.30;;;;;;;2.46;72.43;100707.00;6240634;28;20096;-72
2022/02/26 04:25:32;;;;;;;11.50;5.10;;;;;;;2.57;73.92;100720.53;6274447;28;20041;-72
2022/02/26 04:28:33;;;;;;;13.52;5.63;;;;;;;2.49;73.80;100719.81;6309737;28;20084;-72
2022/02/26 04:31:35;;;;;;;10.52;5.55;;;;;;;2.52;73.67;100725.78;6273141;28;20045;-72
2022/02/26 04:34:36;;;;;;;9.47;5.83;;;;;;;2.62;73.47;100735.06;6293043;28;20518;-72
2022/02/26 04:37:37;;;;;;;13.65;6.22;;;;;;;2.58;73.97;100735.97;6298871;28;20037;-72
2022/02/26 04:40:37;;;;;;;11.35;5.70;;;;;;;2.46;73.39;100735.34;6297634;28;20452;-69
2022/02/26 04:43:41;;;;;;;11.75;5.68;;;;;;;2.57;73.26;100736.00;6299002;28;20474;-69
2022/02/26 04:46:42;;;;;;;13.65;6.10;;;;;;;2.56;73.54;100736.91;6292384;28;20051;-72
2022/02/26 04:49:44;;;;;;;16.02;5.40;;;;;;;2.57;73.48;100733.44;6273558;28;20041;-68
2022/02/26 04:52:45;;;;;;;10.82;5.30;;;;;;;2.73;73.07;100744.31;6273676;28;20041;-72
2022/02/26 04:55:46;;;;;;;11.75;5.80;;;;;;;2.82;72.51;100752.75;6272423;28;20052;-72
2022/02/26 04:58:47;;;;;;;17.17;6.47;;;;;;;2.79;72.61;100750.22;6272316;28;20060;-72
2022/02/26 05:01:47;;;;;;;13.30;5.88;;;;;;;2.78;72.13;100750.22;6273450;28;20445;-69
2022/02/26 05:04:48;;;;;;;13.57;5.78;;;;;;;2.86;72.20;100757.84;6273397;28;20120;-72
2022/02/26 05:07:49;;;;;;;14.15;5.80;;;;;;;2.83;72.58;100762.16;6290241;28;20048;-72
2022/02/26 05:10:52;;;;;;;11.63;5.20;;;;;;;2.73;72.13;100767.53;6296826;28;20037;-72
2022/02/26 05:13:52;;;;;;;14.88;5.55;;;;;;;2.85;71.78;100769.03;6297105;28;20071;-72
2022/02/26 05:16:53;;;;;;;19.20;6.57;;;;;;;2.79;72.38;100775.16;6280057;28;20044;-72
2022/02/26 05:19:54;;;;;;;11.43;5.38;;;;;;;2.85;72.79;100777.63;6280048;28;20090;-68
2022/02/26 05:22:55;;;;;;;15.73;5.75;;;;;;;2.82;71.54;100781.09;6280044;28;20123;-68
2022/02/26 05:25:56;;;;;;;12.13;5.50;;;;;;;2.77;71.73;100789.78;6297397;28;20040;-72
2022/02/26 05:28:56;;;;;;;11.15;4.82;;;;;;;2.83;71.87;100784.53;6296149;28;20372;-68
2022/02/26 05:31:57;;;;;;;11.48;5.07;;;;;;;2.76;71.70;100783.78;6296310;28;20040;-68
2022/02/26 05:34:58;;;;;;;13.27;5.60;;;;;;;2.78;71.46;100788.88;6296359;28;20037;-68
2022/02/26 05:37:59;;;;;;;14.02;5.80;;;;;;;2.82;70.67;100796.56;6296317;28;20105;-69
2022/02/26 05:41:00;;;;;;;10.60;4.90;;;;;;;2.85;70.51;100800.81;6297432;28;20135;-69
2022/02/26 05:44:00;;;;;;;10.68;5.18;;;;;;;2.83;70.50;100802.56;6279194;28;20064;-72
2022/02/26 05:47:01;;;;;;;11.73;4.78;;;;;;;2.85;69.85;100803.41;6284427;28;20419;-73
2022/02/26 05:50:03;;;;;;;12.55;5.95;;;;;;;2.78;70.22;100804.34;6237943;28;20494;-72
2022/02/26 05:53:04;;;;;;;12.77;5.87;;;;;;;2.92;69.54;100802.41;6254529;28;20517;-72
2022/02/26 05:56:05;;;;;;;14.98;5.78;;;;;;;2.90;70.22;100809.31;6272179;28;20052;-68
2022/02/26 05:59:06;;;;;;;12.57;5.38;;;;;;;2.87;69.94;100814.53;6279274;28;20045;-69
2022/02/26 06:02:07;;;;;;;13.18;5.28;;;;;;;3.03;69.77;100812.53;6268827;28;20056;-68
2022/02/26 06:05:08;;;;;;;11.98;6.10;;;;;;;2.89;70.59;100817.09;6297124;28;20113;-68
2022/02/26 06:08:09;;;;;;;14.52;5.40;;;;;;;2.95;70.49;100822.97;6297319;28;20433;-69
2022/02/26 06:11:10;;;;;;;11.70;5.57;;;;;;;2.90;70.71;100824.78;6296198;28;20499;-69
2022/02/26 06:14:11;;;;;;;12.68;5.60;;;;;;;2.89;69.37;100829.97;6279725;28;20123;-72
2022/02/26 06:17:12;;;;;;;15.48;6.15;;;;;;;3.03;69.43;100838.31;6297081;28;20044;-72
2022/02/26 06:20:13;;;;;;;18.38;6.57;;;;;;;2.92;68.81;100838.47;6279678;28;20045;-72
2022/02/26 06:23:14;;;;;;;13.20;6.35;;;;;;;2.77;71.20;100842.16;6278321;28;20418;-72
2022/02/26 06:26:15;;;;;;;10.20;5.55;;;;;;;2.73;71.65;100835.38;6278819;28;20117;-72
2022/02/26 06:29:15;;;;;;;11.30;5.20;;;;;;;2.78;70.14;100838.75;6259294;28;20032;-68
2022/02/26 06:32:16;;;;;;;11.07;5.90;;;;;;;2.86;69.21;100846.31;6272629;28;20037;-68
2022/02/26 06:35:17;;;;;;;14.32;5.47;;;;;;;2.87;69.27;100845.47;6295875;28;20164;-72
2022/02/26 06:38:18;;;;;;;12.25;5.20;;;;;;;2.92;67.66;100855.69;6294574;28;20047;-72
2022/02/26 06:41:19;;;;;;;12.52;5.20;;;;;;;2.97;67.83;100852.16;6296106;28;20418;-73
2022/02/26 06:44:20;;;;;;;17.30;4.88;;;;;;;2.97;67.57;100854.75;6280295;28;20052;-69
2022/02/26 06:47:21;;;;;;;12.35;4.38;;;;;;;3.06;67.34;100847.72;6271201;28;20041;-69
2022/02/26 06:50:22;;;;;;;9.55;4.93;;;;;;;3.27;66.12;100855.06;6303263;28;20049;-73
2022/02/26 06:53:22;;;;;;;12.20;4.63;;;;;;;3.34;65.89;100855.84;6303564;28;20454;-73
2022/02/26 06:56:23;;;;;;;12.57;6.15;;;;;;;3.40;66.53;100864.31;6281472;28;20049;-69
2022/02/26 06:59:24;;;;;;;12.18;5.72;;;;;;;3.40;66.66;100866.88;6281932;28;20407;-68
2022/02/26 07:02:25;;;;;;;13.10;4.50;;;;;;;3.31;66.32;100872.19;6269999;28;20048;-73
2022/02/26 07:05:26;;;;;;;13.80;5.15;;;;;;;3.48;67.36;100877.06;6270957;28;20110;-69
2022/02/26 07:08:27;;;;;;;13.48;5.07;;;;;;;3.69;64.77;100874.97;6271058;28;20040;-69
2022/02/26 07:11:28;;;;;;;12.88;4.57;;;;;;;3.62;64.13;100885.41;6253374;28;20055;-69
2022/02/26 07:14:29;;;;;;;10.20;4.60;;;;;;;3.70;64.27;100895.56;6253248;28;20407;-72
2022/02/26 07:17:30;;;;;;;10.88;4.55;;;;;;;3.78;63.06;100893.69;6270908;28;20052;-72
2022/02/26 07:20:31;;;;;;;9.75;4.53;;;;;;;3.80;63.84;100901.41;6270952;28;20487;-72
2022/02/26 07:23:32;;;;;;;9.73;4.70;;;;;;;3.73;63.77;100895.50;6237009;28;20518;-68
2022/02/26 07:26:33;;;;;;;12.20;4.85;;;;;;;3.97;63.34;100901.91;6269689;28;20041;-72
2022/02/26 07:29:33;;;;;;;11.77;4.70;;;;;;;4.07;61.78;100901.72;6269609;28;20044;-72
2022/02/26 07:32:34;;;;;;;10.95;4.95;;;;;;;3.91;63.05;100912.38;6270643;28;20102;-73
2022/02/26 07:35:36;;;;;;;11.02;4.50;;;;;;;3.87;60.95;100915.91;6253137;28;20041;-72
2022/02/26 07:38:38;;;;;;;9.65;4.63;;;;;;;3.96;59.79;100917.44;6291270;28;20095;-69
2022/02/26 07:41:39;;;;;;;9.98;4.32;;;;;;;4.11;59.79;100917.13;6270708;28;20048;-69
2022/02/26 07:44:39;;;;;;;9.52;4.88;;;;;;;4.38;60.57;100920.84;6270482;28;20049;-68
2022/02/26 07:47:41;;;;;;;9.63;4.22;;;;;;;4.36;59.40;100914.88;6282374;28;20044;-72
2022/02/26 07:50:42;;;;;;;11.52;5.22;;;;;;;4.62;58.45;100918.63;6297590;28;20040;-73
2022/02/26 07:53:44;;;;;;;7.65;4.35;;;;;;;4.67;57.39;100908.19;6277913;28;20063;-73
2022/02/26 07:56:45;;;;;;;23.17;9.38;;;;;;;4.70;54.99;100918.47;6287198;28;20037;-73
2022/02/26 07:59:46;;;;;;;15.30;6.45;;;;;;;4.76;54.40;100918.31;6299751;28;20567;-68
2022/02/26 08:02:47;;;;;;;18.10;6.22;;;;;;;4.96;55.22;100925.59;6293463;28;20115;-69
2022/02/26 08:05:48;;;;;;;12.55;6.45;;;;;;;5.25;54.42;100919.72;6282782;28;20044;-69
2022/02/26 08:08:48;;;;;;;11.35;5.05;;;;;;;5.18;53.87;100915.59;6274709;28;20056;-72
2022/02/26 08:11:49;;;;;;;6.47;3.33;;;;;;;5.14;52.59;100922.56;6273316;28;20107;-73
2022/02/26 08:14:51;;;;;;;9.98;4.03;;;;;;;4.97;52.57;100922.97;6277810;28;20045;-71
2022/02/26 08:17:51;;;;;;;8.95;4.00;;;;;;;4.96;51.97;100921.28;6299079;28;20079;-67
2022/02/26 08:20:52;;;;;;;12.98;4.97;;;;;;;5.11;52.40;100933.00;6298091;28;20040;-67
2022/02/26 08:23:53;;;;;;;14.75;4.40;;;;;;;5.35;52.32;100931.53;6274393;28;20119;-71
2022/02/26 08:26:54;;;;;;;6.63;3.25;;;;;;;5.23;51.27;100924.94;6276953;28;20036;-71
2022/02/26 08:29:55;;;;;;;8.35;3.63;;;;;;;5.47;51.92;100926.94;6282578;28;20037;-71
2022/02/26 08:32:56;;;;;;;7.43;3.58;;;;;;;5.45;51.99;100920.03;6279906;28;20127;-71
2022/02/26 08:35:57;;;;;;;12.73;6.22;;;;;;;5.45;51.22;100926.97;6285607;28;20049;-70
2022/02/26 08:38:58;;;;;;;9.75;3.95;;;;;;;5.34;51.15;100916.91;6292754;28;20049;-71
2022/02/26 08:41:59;;;;;;;8.35;3.67;;;;;;;5.36;50.88;100925.47;6280298;28;20060;-71
2022/02/26 08:45:02;;;;;;;7.97;3.08;;;;;;;5.35;51.05;100921.16;6280982;28;20444;-71
2022/02/26 08:48:07;;;;;;;5.80;3.47;;;;;;;5.30;51.77;100930.81;6276930;28;20495;-71
2022/02/26 08:51:07;;;;;;;8.10;3.40;;;;;;;5.39;50.94;100927.13;6273491;28;20052;-71
2022/02/26 08:54:09;;;;;;;9.13;3.97;;;;;;;5.50;52.28;100934.59;6258618;28;20095;-71
2022/02/26 08:57:10;;;;;;;12.38;3.80;;;;;;;5.88;52.26;100936.19;6298368;28;20040;-71
2022/02/26 09:00:12;;;;;;;10.82;3.95;;;;;;;6.00;51.98;100943.66;6280608;28;20090;-71
2022/02/26 09:03:13;;;;;;;8.98;3.88;;;;;;;6.08;51.83;100952.97;6294526;28;20056;-67
2022/02/26 09:06:14;;;;;;;11.65;4.55;;;;;;;6.14;51.02;100947.63;6272152;28;20404;-68
2022/02/26 09:09:15;;;;;;;16.92;5.45;;;;;;;6.38;49.19;100946.03;6273719;28;20041;-68
2022/02/26 09:12:16;;;;;;;10.20;4.22;;;;;;;6.34;49.14;100945.28;6272970;28;20037;-67
2022/02/26 09:15:17;;;;;;;4.65;2.13;;;;;;;6.07;48.52;100948.66;6294045;28;20044;-67
2022/02/26 09:18:18;;;;;;;9.70;3.22;;;;;;;6.36;48.37;100947.81;6296673;28;20491;-68
2022/02/26 09:21:20;;;;;;;14.82;4.55;;;;;;;6.36;48.46;100948.69;6296574;28;20044;-71
2022/02/26 09:24:21;;;;;;;7.75;3.05;;;;;;;6.35;48.06;100951.31;6280229;28;20051;-71
2022/02/26 09:27:22;;;;;;;7.30;3.25;;;;;;;6.38;47.54;100949.50;6296984;28;20056;-71
2022/02/26 09:30:24;;;;;;;9.95;3.97;;;;;;;6.32;48.74;100957.44;6280824;28;20041;-71
2022/02/26 09:33:25;;;;;;;5.55;2.92;;;;;;;6.19;47.66;100951.75;6273795;28;20043;-69
2022/02/26 09:36:26;;;;;;;10.02;3.33;;;;;;;6.15;48.52;100960.50;6274014;28;20040;-71
2022/02/26 09:39:27;;;;;;;11.90;3.60;;;;;;;6.24;48.43;100962.00;6271119;28;20105;-71
2022/02/26 09:42:29;;;;;;;15.90;4.50;;;;;;;6.17;48.47;100969.09;6271212;28;20128;-71
2022/02/26 09:45:31;;;;;;;13.27;6.60;;;;;;;6.22;48.70;100964.63;6271052;28;20096;-71
2022/02/26 09:48:39;;;;;;;8.48;3.55;;;;;;;6.29;49.10;100972.25;6255384;28;20507;-71
2022/02/26 09:51:43;;;;;;;8.60;3.13;;;;;;;6.33;48.63;100969.50;6270852;28;20068;-73
2022/02/26 09:54:53;;;;;;;11.90;3.13;;;;;;;6.26;49.82;100968.00;6271072;28;20045;-72
2022/02/26 09:57:56;;;;;;;11.48;3.25;;;;;;;6.61;49.37;100971.28;6254936;28;20053;-72
2022/02/26 10:00:57;;;;;;;8.32;2.97;;;;;;;6.66;48.16;100966.81;6288590;28;20131;-71
2022/02/26 10:04:09;;;;;;;7.53;3.05;;;;;;;6.56;48.81;100968.81;6278884;28;20071;-71
2022/02/26 10:07:17;;;;;;;8.18;3.17;;;;;;;7.10;47.99;100974.94;6329801;28;20052;-71
2022/02/26 10:10:24;;;;;;;9.35;3.28;;;;;;;7.36;48.47;100971.53;6295440;28;20503;-71
2022/02/26 10:13:25;;;;;;;9.02;3.28;;;;;;;7.16;47.67;100979.09;6296100;28;20041;-72
2022/02/26 10:16:47;;;;;;;11.50;4.78;;;;;;;7.39;46.73;100981.81;6295373;28;20127;-72
2022/02/26 10:19:47;;;;;;;6.68;3.30;;;;;;;7.03;46.75;100989.03;6296563;28;20048;-72
2022/02/26 10:22:51;;;;;;;6.78;3.28;;;;;;;7.17;46.34;100986.84;6296355;28;20411;-72
2022/02/26 10:26:09;;;;;;;10.25;4.13;;;;;;;7.59;46.39;100985.50;6296524;28;20036;-69
2022/02/26 10:29:12;;;;;;;13.50;4.80;;;;;;;7.88;45.68;100981.88;6296350;28;20502;-68
2022/02/26 10:32:21;;;;;;;11.93;5.03;;;;;;;7.94;46.19;100976.47;6296282;28;20044;-69
2022/02/26 10:35:34;;;;;;;11.20;4.60;;;;;;;7.98;45.69;100991.06;6295009;28;20040;-72
2022/02/26 10:38:36;;;;;;;7.10;3.78;;;;;;;7.97;44.47;100981.56;6296328;28;20118;-68
2022/02/26 10:41:45;;;;;;;10.38;3.72;;;;;;;7.93;45.66;100979.97;6296209;28;20101;-68
2022/02/26 10:45:04;;;;;;;9.23;3.55;;;;;;;8.15;45.02;100982.66;6296173;28;20117;-68
2022/02/26 10:48:04;;;;;;;8.32;3.58;;;;;;;8.44;43.95;100988.56;6328961;28;20139;-72
2022/02/26 10:51:11;;;;;;;11.05;4.13;;;;;;;8.55;43.86;100996.00;6296224;28;20039;-69
2022/02/26 10:54:24;;;;;;;9.40;3.53;;;;;;;8.70;43.55;100986.75;6295987;28;20067;-68
2022/02/26 10:57:32;;;;;;;;;;;;;;;8.93;44.12;100988.47;6295382;28;20111;-68
2022/02/26 11:00:39;;;;;;;6.15;3.47;;;;;;;8.54;42.80;100991.69;6296049;28;19920;-71
2022/02/26 11:03:40;;;;;;;12.32;5.78;;;;;;;9.20;43.58;100995.16;6295365;28;20047;-68
2022/02/26 11:06:42;;;;;;;8.95;3.75;;;;;;;9.43;41.57;100994.25;6270143;28;20041;-71
2022/02/26 11:09:45;;;;;;;9.75;4.72;;;;;;;9.39;42.42;100989.19;6271103;28;20037;-71
2022/02/26 11:12:46;;;;;;;8.40;3.65;;;;;;;8.88;42.81;100994.69;6269951;28;20543;-68
2022/02/26 11:15:57;;;;;;;10.00;3.60;;;;;;;8.41;43.12;100997.34;6253460;28;20055;-71
2022/02/26 11:19:01;;;;;;;10.48;3.80;;;;;;;8.33;43.89;100994.13;6270951;28;20077;-71
2022/02/26 11:22:02;;;;;;;9.40;3.90;;;;;;;8.28;43.34;100991.72;6270873;28;20045;-71
2022/02/26 11:25:04;;;;;;;10.63;4.38;;;;;;;8.39;43.57;100988.72;6271073;28;20475;-71
2022/02/26 11:28:10;;;;;;;7.90;3.78;;;;;;;8.27;43.63;100989.16;6275703;28;20036;-68
2022/02/26 11:31:42;;;;;;;8.38;3.33;;;;;;;8.44;43.34;100986.84;6275508;28;20047;-68
2022/02/26 11:34:43;;;;;;;8.68;3.17;;;;;;;8.85;44.04;100979.22;6305960;28;20512;-72
2022/02/26 11:37:51;;;;;;;9.13;3.83;;;;;;;8.93;42.77;100981.50;6274361;28;20045;-69
2022/02/26 11:41:19;;;;;;;8.52;3.78;;;;;;;9.07;42.68;100984.38;6275409;28;20056;-73
2022/02/26 11:44:40;;;;;;;8.95;3.95;;;;;;;9.10;42.71;100988.66;6275081;28;20128;-72
2022/02/26 11:48:02;;;;;;;7.05;3.60;;;;;;;9.55;41.46;100972.03;6275266;28;20045;-72
2022/02/26 11:51:10;;;;;;;8.67;4.50;;;;;;;9.74;41.97;100972.13;6275140;28;20167;-68
2022/02/26 11:54:20;;;;;;;10.55;3.90;;;;;;;10.21;41.63;100971.78;6273768;28;20041;-72
2022/02/26 11:57:24;;;;;;;7.85;3.15;;;;;;;9.58;41.86;100979.72;6257929;28;20053;-73
2022/02/26 12:00:25;;;;;;;8.18;3.90;;;;;;;9.32;41.87;100975.59;6273928;28;20506;-68
2022/02/26 12:03:41;;;;;;;8.77;4.22;;;;;;;9.62;42.13;100975.25;6273459;28;20048;-73
2022/02/26 12:06:42;;;;;;;7.45;4.07;;;;;;;9.58;42.79;100971.06;6274840;28;20073;-68
2022/02/26 12:10:09;;;;;;;8.15;4.13;;;;;;;9.84;42.37;100962.13;6257048;28;20041;-73
2022/02/26 12:13:29;;;;;;;9.20;3.70;;;;;;;9.44;42.35;100975.09;6274552;28;20045;-73
2022/02/26 12:16:35;;;;;;;9.68;4.43;;;;;;;9.71;43.43;100971.38;6274592;28;20410;-68
2022/02/26 12:19:47;;;;;;;8.25;4.03;;;;;;;9.30;42.77;100977.41;6273588;28;20052;-73
2022/02/26 12:22:49;;;;;;;8.35;4.03;;;;;;;9.47;42.58;100969.75;6273222;28;20044;-72
2022/02/26 12:26:01;;;;;;;10.02;4.00;;;;;;;9.11;42.70;100974.72;6273208;28;20047;-73
2022/02/26 12:29:05;;;;;;;6.40;3.75;;;;;;;8.71;43.46;100980.63;6274383;28;20045;-73
2022/02/26 12:32:07;;;;;;;11.88;4.38;;;;;;;8.77;43.56;100985.59;6272734;28;20187;-69
2022/02/26 12:35:10;;;;;;;7.40;3.67;;;;;;;8.78;43.24;100982.94;6273793;28;20045;-69
2022/02/26 12:38:32;;;;;;;5.97;3.78;;;;;;;8.38;44.06;100992.22;6273820;28;20530;-73
2022/02/26 12:41:35;;;;;;;8.63;3.60;;;;;;;8.61;43.94;100985.34;6272746;28;20575;-74
2022/02/26 12:44:40;;;;;;;7.30;3.70;;;;;;;8.88;42.54;100981.69;6280862;28;20190;-73
2022/02/26 12:47:41;;;;;;;6.05;3.50;;;;;;;9.14;43.27;100984.16;6272636;28;20094;-73
2022/02/26 12:50:43;;;;;;;14.02;5.38;;;;;;;9.19;43.23;100977.84;6272542;28;20476;-68
2022/02/26 12:53:43;;;;;;;7.60;3.78;;;;;;;9.03;41.80;100982.81;6293241;28;20045;-67
2022/02/26 12:56:45;;;;;;;8.18;4.40;;;;;;;9.16;43.91;100979.72;6271536;28;20045;-68
2022/02/26 12:59:46;;;;;;;7.53;3.80;;;;;;;9.27;41.75;100967.97;6272354;28;20542;-68
2022/02/26 13:02:56;;;;;;;8.10;3.83;;;;;;;9.45;42.30;100968.09;6292374;28;20077;-68
2022/02/26 13:06:05;;;;;;;7.78;4.03;;;;;;;9.87;42.68;100968.03;6331135;28;20095;-68
2022/02/26 13:09:07;;;;;;;10.98;3.90;;;;;;;9.44;42.13;100975.09;6298215;28;20044;-73
2022/02/26 13:12:09;;;;;;;5.72;3.45;;;;;;;9.25;42.24;100976.75;6298605;28;20033;-73
2022/02/26 13:15:11;;;;;;;7.32;3.35;;;;;;;9.17;42.04;100976.22;6296903;28;20055;-67
2022/02/26 13:18:13;;;;;;;16.05;8.70;;;;;;;9.06;42.06;100968.84;6273918;28;20040;-67
2022/02/26 13:21:13;;;;;;;9.43;4.33;;;;;;;8.64;42.04;100967.84;6273135;28;20045;-73
2022/02/26 13:24:14;;;;;;;13.65;7.00;;;;;;;8.85;43.05;100974.00;6271669;28;20116;-67
2022/02/26 13:27:24;;;;;;;6.13;3.63;;;;;;;8.76;43.01;100982.16;6272992;28;20408;-73
2022/02/26 13:30:27;;;;;;;14.70;7.20;;;;;;;8.61;43.81;100974.94;6272925;28;20068;-67
2022/02/26 13:33:28;;;;;;;11.35;5.57;;;;;;;8.95;42.06;100977.06;6271615;28;20037;-68
2022/02/26 13:36:29;;;;;;;7.93;3.28;;;;;;;8.54;42.83;100969.09;6272615;28;20166;-73
2022/02/26 13:39:30;;;;;;;6.75;3.25;;;;;;;8.50;43.12;100984.91;6271553;28;20037;-67
2022/02/26 13:42:34;;;;;;;7.50;4.32;;;;;;;8.40;44.41;100980.03;6272576;28;20044;-73
2022/02/26 13:45:42;;;;;;;5.85;3.67;;;;;;;8.63;43.68;100981.78;6304593;28;20053;-72
2022/02/26 13:48:46;;;;;;;8.10;4.60;;;;;;;8.57;43.20;100984.63;6270874;28;20045;-68
2022/02/26 13:51:47;;;;;;;7.90;3.97;;;;;;;8.39;43.58;100985.28;6284369;28;20041;-67
2022/02/26 13:54:50;;;;;;;8.35;4.00;;;;;;;8.52;44.03;100991.72;6279138;28;20407;-68
2022/02/26 13:57:51;;;;;;;8.90;3.95;;;;;;;8.60;43.96;100987.09;6296903;28;20040;-67
2022/02/26 14:01:10;;;;;;;6.25;3.22;;;;;;;8.38;43.35;100993.97;6295936;28;20099;-67
2022/02/26 14:04:19;;;;;;;11.90;3.28;;;;;;;8.42;42.69;100999.06;6296970;28;20119;-73
2022/02/26 14:07:32;;;;;;;10.25;3.00;;;;;;;8.18;42.66;100986.91;6296949;28;20540;-73
2022/02/26 14:10:39;;;;;;;5.95;2.95;;;;;;;8.24;42.79;100994.50;6295512;28;20060;-67
2022/02/26 14:13:40;;;;;;;4.88;2.58;;;;;;;7.92;42.72;100990.44;6295682;28;20037;-67
2022/02/26 14:16:41;;;;;;;10.85;3.47;;;;;;;7.98;43.46;100988.44;6295443;28;20411;-73